x

Central Caribbean - 210 Nm Sse Of Kingston, Jamaica (42058) Wave Buoy

3:50pm - Wed 27th Aug 2014 All times are EST. -5 hours from GMT.

  • Sig Wave height 5.9ft
  • Swell Direction
  • Peak Period 8s
  • Average Period 5s
  • Wind
    18mph, 20mph gusts
  • Sea Temp 84°f
  • 空気 Temp 84°f
  • Sea Pressure 1011.5mb
  • Central Caribbean - 210 Nm Sse Of Kingston, Jamaica
  • Central Caribbean - 210 Nm Sse Of Kingston, Jamaica

More Historic Weather Station data

Upgrade to MSW Pro to gain access to the past 30 days of data for over 8000 Wavebouys and Weather Stations around the globe.

Join Pro

Comparision Forecast

View Surf forecast
   
Wed 08/27 3:50pm 6ft 8s 5s 18 20 mph 1011.5mb 84f 84f
2:50pm 6ft 8s 5s 18 20 mph 1011.6mb 84f 84f
1:50pm 6ft 7s 5s 18 20 mph 1012.2mb 84f 84f
12:50pm 6ft 8s 6s 18 20 mph 1012.8mb 84f 84f
11:50am 5.5ft 8s 5s 18 22 mph 1013.3mb 84f 84f
10:50am 6ft 7s 5s 22 27 mph 1013.4mb 84f 84f
9:50am 6ft 8s 5s 20 27 mph 1013.4mb 84f 84f
8:50am 5.5ft 7s 5s 22 27 mph 1013.1mb 84f 84f
7:50am 5ft 7s 5s 22 27 mph 1012.3mb 84f 84f
6:50am 5ft 8s 5s 22 27 mph 1011.5mb 84f 84f
5:50am 5ft 7s 5s 20 25 mph 1011.2mb 84f 84f
4:50am 4.5ft 7s 5s 20 25 mph 1010.9mb 84f 84f
3:50am 4.5ft 7s 5s 20 25 mph 1010.6mb 84f 84f
2:50am 4ft 7s 5s 18 22 mph 1011.2mb 84f 84f
1:50am 4.5ft 7s 5s 18 20 mph 1011.7mb 84f 84f
12:50am 4ft 7s 5s 16 20 mph 1011.9mb 84f 84f
Tue 08/26 11:50pm 3.5ft 7s 5s 16 18 mph 1012.4mb 84f 84f
10:50pm 4ft 7s 5s 13 16 mph 1012.9mb 85f 84f
9:50pm 4ft 7s 5s 13 16 mph 1012.1mb 84f 84f
8:50pm 4.5ft 7s 5s 13 18 mph 1011.5mb 84f 84f
7:50pm 4ft 7s 5s 16 18 mph 1011.5mb 84f 84f
6:50pm 4ft 7s 5s 16 18 mph 1011.6mb 84f 84f
5:50pm 4ft 7s 5s 16 18 mph 1010.7mb 84f 84f
4:50pm 4ft 7s 5s 13 16 mph 1010.4mb 84f 84f
3:50pm 4ft 7s 5s 13 16 mph 1009.7mb 84f 84f
2:50pm 4ft 7s 5s 13 16 mph 1010mb 85f 84f
1:50pm 3.5ft 6s 5s 11 13 mph 1010.8mb 84f 84f
12:50pm 3.5ft 7s 5s 11 13 mph 1011.1mb 85f 83f
11:50am 3.5ft 7s 4s 18 20 mph 1011.5mb 84f 82f
10:50am 3.5ft 7s 4s 18 20 mph 1012mb 84f 84f
9:50am 3.5ft 7s 4s 16 18 mph 1012.1mb 84f 84f
8:50am 3.5ft 7s 5s 16 20 mph 1011.5mb 84f 84f
7:50am 3ft 7s 5s 13 16 mph 1011.1mb 84f 84f
6:50am 3ft 7s 5s 13 16 mph 1010.2mb 84f 84f
5:50am 3ft 6s 5s 13 16 mph 1009.7mb 84f 84f
4:50am 3ft 7s 5s 13 16 mph 1009.2mb 85f 84f
3:50am 3ft 7s 6s 11 13 mph 1009.1mb 85f 84f
2:50am 2.5ft 7s 6s 9 11 mph 1009mb 85f 84f
1:50am 2.5ft 7s 6s 7
mph
1009.2mb 85f 83f
12:50am 2.5ft 7s 6s 7 9 mph 1010mb 86f 84f
Mon 08/25 11:50pm 2.5ft 7s 6s 7 9 mph 1010.4mb 86f 83f
10:50pm 2.5ft 8s 6s 9
mph
1010.6mb 86f 84f
9:50pm 2.5ft 7s 6s 9 11 mph 1010.6mb 86f 84f
8:50pm 2.5ft 7s 6s 7
mph
1010mb 86f 84f
7:50pm 2.5ft 8s 6s 4 7 mph 1009.5mb 86f 84f
6:50pm 3ft 8s 6s 4
mph
1008.5mb 86f 84f
5:50pm 3.5ft 8s 6s 2 4 mph 1007.9mb 86f 84f
4:50pm 3ft 7s 6s  -  2 mph 1007.8mb 86f 84f
3:50pm 3ft 7s 6s 4
mph
1007.7mb 86f 84f
2:50pm 3ft 7s 6s 2 4 mph 1008mb 86f 84f
1:50pm 3ft 8s 6s 4 7 mph 1008.4mb 87f 84f
12:50pm 3ft 8s 6s 4 7 mph 1009mb 87f 84f
11:50am 3ft 7s 6s 4 7 mph 1009.2mb 87f 83f
10:50am 3ft 8s 6s 2 4 mph 1009.9mb 86f 83f
9:50am 3ft 8s 6s  -  2 mph 1010.3mb 86f 84f
8:50am 3ft 8s 6s 2
mph
1010mb 85f 84f
7:50am 3ft 8s 6s 2 4 mph 1009.4mb 85f 83f
6:50am 3.5ft 8s 6s 2 4 mph 1008.9mb 85f 82f
5:50am 3.5ft 8s 6s 2
mph
1008.4mb 84f 82f
4:50am 3.5ft 8s 6s  -  2 mph 1008.1mb 84f 82f
3:50am 3.5ft 8s 6s  -  2 mph 1007.8mb 84f 82f
2:50am 3.5ft 8s 6s 2
mph
1008mb 84f 82f
1:50am 3.5ft 8s 6s  -  2 mph 1008.7mb 84f 82f
12:50am 4ft 8s 7s 4
mph
1009.3mb 84f 83f
Sun 08/24 11:50pm 3.5ft 8s 7s 4 7 mph 1009.8mb 85f 83f
10:50pm 4ft 8s 7s 4
mph
1010.2mb 85f 83f
9:50pm 3.5ft 8s 7s 2
mph
1010.6mb 85f 83f
8:50pm 3.5ft 8s 7s 2 4 mph 1010.1mb 85f 83f
7:50pm 2.5ft 8s 6s 7
mph
1009.3mb 85f 81f
6:50pm 3ft 8s 6s 7 11 mph 1008.8mb 85f 82f
5:50pm 2.5ft 8s 6s 7
mph
1008.2mb 85f 84f
4:50pm 2.5ft 8s 6s 4
mph
1007.8mb 85f 84f
3:50pm 2.5ft 9s 6s 4
mph
1007.7mb 85f 84f
2:50pm 2ft 9s 5s 4 7 mph 1007.7mb 85f 83f
1:50pm 2ft 10s 5s 7 9 mph 1008.1mb 85f 83f
12:50pm 2ft 8s 5s 9 11 mph 1008.9mb 85f 83f
11:50am 2ft 8s 5s 9 11 mph 1009.6mb 84f 83f
10:50am 2.5ft 9s 5s 11 13 mph 1009.9mb 84f 83f
9:50am 2.5ft 7s 5s 11 13 mph 1010mb 84f 83f
8:50am 2.5ft 7s 5s 11 13 mph 1009.8mb 84f 83f
7:50am 2.5ft 7s 5s 11 13 mph 1009.3mb 83f 83f
6:50am 2.5ft 7s 5s 11
mph
1008.6mb 83f 83f
5:50am 2.5ft 6s 5s 9
mph
1008.4mb 84f 82f
4:50am 2.5ft 8s 5s 9
mph
1008.2mb 84f 83f
3:50am 2.5ft 8s 5s 9 11 mph 1008.3mb 84f 83f
2:50am 2.5ft 7s 5s 9 11 mph 1008.4mb 84f 82f
1:50am 2.5ft 7s 5s 9 11 mph 1009mb 84f 83f
12:50am 3ft 7s 5s 7
mph
1009.6mb 84f 83f
Sat 08/23 11:50pm 3ft 7s 5s 7 9 mph 1010mb 84f 83f
10:50pm 3ft 7s 5s 4 7 mph 1010.4mb 84f 83f
9:50pm 3.5ft 7s 6s 7
mph
1010.3mb 84f 83f